sensor_id;sensor_type;location;lat;lon;timestamp;P1;durP1;ratioP1;P2;durP2;ratioP2
48635;SDS011;34429;52.332;5.614;2022-11-14T00:01:24;49.63;;;22.80;;
48635;SDS011;34429;52.332;5.614;2022-11-14T00:03:53;43.33;;;21.13;;
48635;SDS011;34429;52.332;5.614;2022-11-14T00:06:21;51.58;;;22.30;;
48635;SDS011;34429;52.332;5.614;2022-11-14T00:08:49;46.15;;;21.77;;
48635;SDS011;34429;52.332;5.614;2022-11-14T00:11:18;53.25;;;24.70;;
48635;SDS011;34429;52.332;5.614;2022-11-14T00:13:49;47.92;;;22.70;;
48635;SDS011;34429;52.332;5.614;2022-11-14T00:16:17;59.80;;;26.77;;
48635;SDS011;34429;52.332;5.614;2022-11-14T00:18:48;52.63;;;23.60;;
48635;SDS011;34429;52.332;5.614;2022-11-14T00:21:16;59.13;;;23.92;;
48635;SDS011;34429;52.332;5.614;2022-11-14T00:23:45;49.97;;;23.08;;
48635;SDS011;34429;52.332;5.614;2022-11-14T00:26:13;49.97;;;23.23;;
48635;SDS011;34429;52.332;5.614;2022-11-14T00:28:41;43.83;;;20.35;;
48635;SDS011;34429;52.332;5.614;2022-11-14T00:31:10;56.33;;;24.77;;
48635;SDS011;34429;52.332;5.614;2022-11-14T00:33:38;49.38;;;23.80;;
48635;SDS011;34429;52.332;5.614;2022-11-14T00:36:09;57.08;;;24.35;;
48635;SDS011;34429;52.332;5.614;2022-11-14T00:38:38;55.90;;;25.00;;
48635;SDS011;34429;52.332;5.614;2022-11-14T00:41:06;52.93;;;23.53;;
48635;SDS011;34429;52.332;5.614;2022-11-14T00:43:35;60.53;;;24.90;;
48635;SDS011;34429;52.332;5.614;2022-11-14T00:46:03;52.65;;;25.15;;
48635;SDS011;34429;52.332;5.614;2022-11-14T00:48:31;52.27;;;24.73;;
48635;SDS011;34429;52.332;5.614;2022-11-14T00:51:00;58.08;;;24.48;;
48635;SDS011;34429;52.332;5.614;2022-11-14T00:53:32;55.85;;;23.67;;
48635;SDS011;34429;52.332;5.614;2022-11-14T00:56:00;56.40;;;24.65;;
48635;SDS011;34429;52.332;5.614;2022-11-14T00:58:29;59.22;;;23.90;;
48635;SDS011;34429;52.332;5.614;2022-11-14T01:00:57;55.42;;;25.48;;
48635;SDS011;34429;52.332;5.614;2022-11-14T01:03:26;61.50;;;25.63;;
48635;SDS011;34429;52.332;5.614;2022-11-14T01:05:54;60.72;;;24.65;;
48635;SDS011;34429;52.332;5.614;2022-11-14T01:08:22;53.85;;;25.05;;
48635;SDS011;34429;52.332;5.614;2022-11-14T01:10:53;62.15;;;24.73;;
48635;SDS011;34429;52.332;5.614;2022-11-14T01:13:21;56.55;;;25.20;;
48635;SDS011;34429;52.332;5.614;2022-11-14T01:15:50;56.20;;;23.55;;
48635;SDS011;34429;52.332;5.614;2022-11-14T01:18:19;58.35;;;24.27;;
48635;SDS011;34429;52.332;5.614;2022-11-14T01:20:48;60.25;;;24.42;;
48635;SDS011;34429;52.332;5.614;2022-11-14T01:23:17;58.15;;;23.77;;
48635;SDS011;34429;52.332;5.614;2022-11-14T01:25:46;65.30;;;28.20;;
48635;SDS011;34429;52.332;5.614;2022-11-14T01:28:17;63.45;;;25.20;;
48635;SDS011;34429;52.332;5.614;2022-11-14T01:30:46;59.28;;;24.27;;
48635;SDS011;34429;52.332;5.614;2022-11-14T01:33:14;65.78;;;24.88;;
48635;SDS011;34429;52.332;5.614;2022-11-14T01:35:43;69.78;;;25.50;;
48635;SDS011;34429;52.332;5.614;2022-11-14T01:38:12;63.42;;;24.38;;
48635;SDS011;34429;52.332;5.614;2022-11-14T01:40:41;62.60;;;25.35;;
48635;SDS011;34429;52.332;5.614;2022-11-14T01:43:27;66.38;;;25.73;;
48635;SDS011;34429;52.332;5.614;2022-11-14T01:46:00;54.70;;;23.90;;
48635;SDS011;34429;52.332;5.614;2022-11-14T01:48:32;72.97;;;26.15;;
48635;SDS011;34429;52.332;5.614;2022-11-14T01:51:09;63.28;;;25.45;;
48635;SDS011;34429;52.332;5.614;2022-11-14T01:53:44;66.35;;;24.35;;
48635;SDS011;34429;52.332;5.614;2022-11-14T01:56:15;68.82;;;25.25;;
48635;SDS011;34429;52.332;5.614;2022-11-14T01:58:49;65.53;;;24.00;;
48635;SDS011;34429;52.332;5.614;2022-11-14T02:01:21;59.17;;;23.35;;
48635;SDS011;34429;52.332;5.614;2022-11-14T02:03:50;67.72;;;24.40;;
48635;SDS011;34429;52.332;5.614;2022-11-14T02:06:21;66.32;;;24.77;;
48635;SDS011;34429;52.332;5.614;2022-11-14T02:08:52;63.70;;;26.30;;
48635;SDS011;34429;52.332;5.614;2022-11-14T02:11:22;65.72;;;24.75;;
48635;SDS011;34429;52.332;5.614;2022-11-14T02:13:53;57.70;;;22.70;;
48635;SDS011;34429;52.332;5.614;2022-11-14T02:16:22;63.85;;;25.30;;
48635;SDS011;34429;52.332;5.614;2022-11-14T02:18:50;65.20;;;23.77;;
48635;SDS011;34429;52.332;5.614;2022-11-14T02:21:21;67.63;;;25.73;;
48635;SDS011;34429;52.332;5.614;2022-11-14T02:23:50;71.90;;;26.92;;
48635;SDS011;34429;52.332;5.614;2022-11-14T02:26:19;64.75;;;23.13;;
48635;SDS011;34429;52.332;5.614;2022-11-14T02:28:48;67.35;;;25.75;;
48635;SDS011;34429;52.332;5.614;2022-11-14T02:31:18;67.93;;;24.80;;
48635;SDS011;34429;52.332;5.614;2022-11-14T02:33:46;70.95;;;24.83;;
48635;SDS011;34429;52.332;5.614;2022-11-14T02:36:15;67.07;;;25.42;;
48635;SDS011;34429;52.332;5.614;2022-11-14T02:38:46;75.35;;;26.20;;
48635;SDS011;34429;52.332;5.614;2022-11-14T02:41:14;69.63;;;24.73;;
48635;SDS011;34429;52.332;5.614;2022-11-14T02:43:44;76.22;;;27.00;;
48635;SDS011;34429;52.332;5.614;2022-11-14T02:46:12;70.85;;;24.42;;
48635;SDS011;34429;52.332;5.614;2022-11-14T02:48:40;79.90;;;27.40;;
48635;SDS011;34429;52.332;5.614;2022-11-14T02:51:09;63.53;;;25.73;;
48635;SDS011;34429;52.332;5.614;2022-11-14T02:53:37;68.47;;;24.63;;
48635;SDS011;34429;52.332;5.614;2022-11-14T02:56:08;69.50;;;25.25;;
48635;SDS011;34429;52.332;5.614;2022-11-14T02:58:36;66.13;;;24.35;;
48635;SDS011;34429;52.332;5.614;2022-11-14T03:01:05;64.85;;;23.98;;
48635;SDS011;34429;52.332;5.614;2022-11-14T03:03:33;67.32;;;23.05;;
48635;SDS011;34429;52.332;5.614;2022-11-14T03:06:01;79.63;;;25.55;;
48635;SDS011;34429;52.332;5.614;2022-11-14T03:08:31;67.35;;;24.33;;
48635;SDS011;34429;52.332;5.614;2022-11-14T03:11:02;73.67;;;27.30;;
48635;SDS011;34429;52.332;5.614;2022-11-14T03:13:34;68.18;;;23.67;;
48635;SDS011;34429;52.332;5.614;2022-11-14T03:16:03;71.10;;;25.35;;
48635;SDS011;34429;52.332;5.614;2022-11-14T03:18:33;69.45;;;24.45;;
48635;SDS011;34429;52.332;5.614;2022-11-14T03:21:04;58.92;;;24.20;;
48635;SDS011;34429;52.332;5.614;2022-11-14T03:23:33;67.03;;;23.67;;
48635;SDS011;34429;52.332;5.614;2022-11-14T03:26:02;69.05;;;23.25;;
48635;SDS011;34429;52.332;5.614;2022-11-14T03:28:34;63.92;;;23.90;;
48635;SDS011;34429;52.332;5.614;2022-11-14T03:31:04;70.38;;;24.65;;
48635;SDS011;34429;52.332;5.614;2022-11-14T03:33:32;65.88;;;25.98;;
48635;SDS011;34429;52.332;5.614;2022-11-14T03:36:02;62.20;;;23.60;;
48635;SDS011;34429;52.332;5.614;2022-11-14T03:38:31;63.08;;;23.33;;
48635;SDS011;34429;52.332;5.614;2022-11-14T03:41:00;59.45;;;23.50;;
48635;SDS011;34429;52.332;5.614;2022-11-14T03:43:29;64.88;;;22.88;;
48635;SDS011;34429;52.332;5.614;2022-11-14T03:46:01;66.72;;;25.63;;
48635;SDS011;34429;52.332;5.614;2022-11-14T03:48:30;62.22;;;23.33;;
48635;SDS011;34429;52.332;5.614;2022-11-14T03:50:59;55.10;;;23.10;;
48635;SDS011;34429;52.332;5.614;2022-11-14T03:53:27;57.88;;;22.55;;
48635;SDS011;34429;52.332;5.614;2022-11-14T03:55:55;68.03;;;24.42;;
48635;SDS011;34429;52.332;5.614;2022-11-14T03:58:24;68.70;;;22.75;;
48635;SDS011;34429;52.332;5.614;2022-11-14T04:00:52;62.38;;;23.90;;
48635;SDS011;34429;52.332;5.614;2022-11-14T04:03:23;63.70;;;23.85;;
48635;SDS011;34429;52.332;5.614;2022-11-14T04:05:52;67.75;;;23.40;;
48635;SDS011;34429;52.332;5.614;2022-11-14T04:08:20;59.55;;;22.88;;
48635;SDS011;34429;52.332;5.614;2022-11-14T04:10:49;67.03;;;23.42;;
48635;SDS011;34429;52.332;5.614;2022-11-14T04:13:17;66.60;;;23.88;;
48635;SDS011;34429;52.332;5.614;2022-11-14T04:15:45;60.08;;;22.83;;
48635;SDS011;34429;52.332;5.614;2022-11-14T04:18:13;66.90;;;23.48;;
48635;SDS011;34429;52.332;5.614;2022-11-14T04:20:44;59.47;;;23.17;;
48635;SDS011;34429;52.332;5.614;2022-11-14T04:23:13;57.17;;;21.83;;
48635;SDS011;34429;52.332;5.614;2022-11-14T04:25:41;58.92;;;21.42;;
48635;SDS011;34429;52.332;5.614;2022-11-14T04:28:10;60.30;;;22.77;;
48635;SDS011;34429;52.332;5.614;2022-11-14T04:30:39;61.97;;;22.30;;
48635;SDS011;34429;52.332;5.614;2022-11-14T04:33:09;65.68;;;23.90;;
48635;SDS011;34429;52.332;5.614;2022-11-14T04:35:37;63.95;;;22.13;;
48635;SDS011;34429;52.332;5.614;2022-11-14T04:38:11;64.20;;;23.00;;
48635;SDS011;34429;52.332;5.614;2022-11-14T04:40:39;60.30;;;21.88;;
48635;SDS011;34429;52.332;5.614;2022-11-14T04:43:08;62.72;;;22.48;;
48635;SDS011;34429;52.332;5.614;2022-11-14T04:45:36;56.38;;;21.35;;
48635;SDS011;34429;52.332;5.614;2022-11-14T04:48:04;50.53;;;18.83;;
48635;SDS011;34429;52.332;5.614;2022-11-14T04:50:33;56.50;;;21.67;;
48635;SDS011;34429;52.332;5.614;2022-11-14T04:53:01;65.13;;;23.95;;
48635;SDS011;34429;52.332;5.614;2022-11-14T04:55:32;60.45;;;21.63;;
48635;SDS011;34429;52.332;5.614;2022-11-14T04:58:00;59.63;;;21.67;;
48635;SDS011;34429;52.332;5.614;2022-11-14T05:00:29;67.22;;;22.10;;
48635;SDS011;34429;52.332;5.614;2022-11-14T05:02:57;57.88;;;21.92;;
48635;SDS011;34429;52.332;5.614;2022-11-14T05:05:26;60.63;;;22.80;;
48635;SDS011;34429;52.332;5.614;2022-11-14T05:07:54;60.28;;;22.20;;
48635;SDS011;34429;52.332;5.614;2022-11-14T05:10:23;57.90;;;20.77;;
48635;SDS011;34429;52.332;5.614;2022-11-14T05:12:54;58.95;;;22.67;;
48635;SDS011;34429;52.332;5.614;2022-11-14T05:15:22;64.88;;;22.92;;
48635;SDS011;34429;52.332;5.614;2022-11-14T05:17:51;62.92;;;22.50;;
48635;SDS011;34429;52.332;5.614;2022-11-14T05:20:19;63.47;;;23.23;;
48635;SDS011;34429;52.332;5.614;2022-11-14T05:22:51;62.67;;;22.27;;
48635;SDS011;34429;52.332;5.614;2022-11-14T05:25:20;59.22;;;22.42;;
48635;SDS011;34429;52.332;5.614;2022-11-14T05:27:49;59.42;;;22.33;;
48635;SDS011;34429;52.332;5.614;2022-11-14T05:30:20;57.30;;;23.08;;
48635;SDS011;34429;52.332;5.614;2022-11-14T05:32:50;56.33;;;21.48;;
48635;SDS011;34429;52.332;5.614;2022-11-14T05:35:18;59.05;;;22.63;;
48635;SDS011;34429;52.332;5.614;2022-11-14T05:37:47;55.42;;;22.55;;
48635;SDS011;34429;52.332;5.614;2022-11-14T05:40:15;54.58;;;20.88;;
48635;SDS011;34429;52.332;5.614;2022-11-14T05:42:43;59.97;;;21.48;;
48635;SDS011;34429;52.332;5.614;2022-11-14T05:45:12;56.95;;;21.15;;
48635;SDS011;34429;52.332;5.614;2022-11-14T05:47:43;67.73;;;23.30;;
48635;SDS011;34429;52.332;5.614;2022-11-14T05:50:11;63.25;;;22.27;;
48635;SDS011;34429;52.332;5.614;2022-11-14T05:52:40;62.42;;;21.92;;
48635;SDS011;34429;52.332;5.614;2022-11-14T05:55:08;57.60;;;21.80;;
48635;SDS011;34429;52.332;5.614;2022-11-14T05:57:36;52.75;;;20.73;;
48635;SDS011;34429;52.332;5.614;2022-11-14T06:00:05;54.38;;;22.08;;
48635;SDS011;34429;52.332;5.614;2022-11-14T06:02:35;57.83;;;21.77;;
48635;SDS011;34429;52.332;5.614;2022-11-14T06:05:06;49.60;;;19.58;;
48635;SDS011;34429;52.332;5.614;2022-11-14T06:07:35;54.58;;;21.83;;
48635;SDS011;34429;52.332;5.614;2022-11-14T06:10:04;67.07;;;22.07;;
48635;SDS011;34429;52.332;5.614;2022-11-14T06:12:33;59.53;;;22.13;;
48635;SDS011;34429;52.332;5.614;2022-11-14T06:15:01;62.55;;;22.67;;
48635;SDS011;34429;52.332;5.614;2022-11-14T06:17:29;62.05;;;22.05;;
48635;SDS011;34429;52.332;5.614;2022-11-14T06:19:57;65.55;;;24.45;;
48635;SDS011;34429;52.332;5.614;2022-11-14T06:22:28;59.63;;;21.90;;
48635;SDS011;34429;52.332;5.614;2022-11-14T06:24:57;53.28;;;20.30;;
48635;SDS011;34429;52.332;5.614;2022-11-14T06:27:25;56.53;;;21.30;;
48635;SDS011;34429;52.332;5.614;2022-11-14T06:29:54;51.03;;;21.67;;
48635;SDS011;34429;52.332;5.614;2022-11-14T06:32:22;58.08;;;22.23;;
48635;SDS011;34429;52.332;5.614;2022-11-14T06:34:50;52.97;;;20.40;;
48635;SDS011;34429;52.332;5.614;2022-11-14T06:37:18;54.35;;;21.58;;
48635;SDS011;34429;52.332;5.614;2022-11-14T06:39:49;54.38;;;21.90;;
48635;SDS011;34429;52.332;5.614;2022-11-14T06:42:24;59.38;;;19.48;;
48635;SDS011;34429;52.332;5.614;2022-11-14T06:44:52;54.05;;;21.60;;
48635;SDS011;34429;52.332;5.614;2022-11-14T06:47:20;55.45;;;20.35;;
48635;SDS011;34429;52.332;5.614;2022-11-14T06:49:48;61.67;;;21.30;;
48635;SDS011;34429;52.332;5.614;2022-11-14T06:52:17;58.35;;;22.08;;
48635;SDS011;34429;52.332;5.614;2022-11-14T06:54:48;57.13;;;21.55;;
48635;SDS011;34429;52.332;5.614;2022-11-14T06:57:17;50.88;;;19.55;;
48635;SDS011;34429;52.332;5.614;2022-11-14T06:59:45;56.83;;;21.13;;
48635;SDS011;34429;52.332;5.614;2022-11-14T07:02:13;55.60;;;21.45;;
48635;SDS011;34429;52.332;5.614;2022-11-14T07:04:42;53.80;;;21.00;;
48635;SDS011;34429;52.332;5.614;2022-11-14T07:07:10;61.58;;;22.42;;
48635;SDS011;34429;52.332;5.614;2022-11-14T07:09:38;51.17;;;20.00;;
48635;SDS011;34429;52.332;5.614;2022-11-14T07:12:10;54.47;;;19.48;;
48635;SDS011;34429;52.332;5.614;2022-11-14T07:14:38;56.00;;;21.42;;
48635;SDS011;34429;52.332;5.614;2022-11-14T07:17:07;51.00;;;20.27;;
48635;SDS011;34429;52.332;5.614;2022-11-14T07:19:35;56.45;;;20.48;;
48635;SDS011;34429;52.332;5.614;2022-11-14T07:22:03;55.03;;;20.90;;
48635;SDS011;34429;52.332;5.614;2022-11-14T07:24:32;53.22;;;19.98;;
48635;SDS011;34429;52.332;5.614;2022-11-14T07:27:00;51.10;;;20.50;;
48635;SDS011;34429;52.332;5.614;2022-11-14T07:29:35;56.20;;;21.25;;
48635;SDS011;34429;52.332;5.614;2022-11-14T07:32:04;56.97;;;21.05;;
48635;SDS011;34429;52.332;5.614;2022-11-14T07:34:32;52.38;;;20.75;;
48635;SDS011;34429;52.332;5.614;2022-11-14T07:37:01;54.35;;;20.83;;
48635;SDS011;34429;52.332;5.614;2022-11-14T07:39:29;52.40;;;21.17;;
48635;SDS011;34429;52.332;5.614;2022-11-14T07:41:57;47.50;;;21.05;;
48635;SDS011;34429;52.332;5.614;2022-11-14T07:44:25;52.75;;;21.48;;
48635;SDS011;34429;52.332;5.614;2022-11-14T07:46:56;53.90;;;19.15;;
48635;SDS011;34429;52.332;5.614;2022-11-14T07:49:24;50.60;;;20.90;;
48635;SDS011;34429;52.332;5.614;2022-11-14T07:51:53;52.15;;;20.08;;
48635;SDS011;34429;52.332;5.614;2022-11-14T07:54:21;52.17;;;19.80;;
48635;SDS011;34429;52.332;5.614;2022-11-14T07:56:49;51.17;;;19.90;;
48635;SDS011;34429;52.332;5.614;2022-11-14T07:59:20;49.67;;;20.65;;
48635;SDS011;34429;52.332;5.614;2022-11-14T08:01:48;56.88;;;20.17;;
48635;SDS011;34429;52.332;5.614;2022-11-14T08:04:19;54.78;;;20.25;;
48635;SDS011;34429;52.332;5.614;2022-11-14T08:06:48;53.40;;;22.05;;
48635;SDS011;34429;52.332;5.614;2022-11-14T08:09:16;54.53;;;20.88;;
48635;SDS011;34429;52.332;5.614;2022-11-14T08:11:44;55.15;;;21.40;;
48635;SDS011;34429;52.332;5.614;2022-11-14T08:14:15;46.78;;;19.83;;
48635;SDS011;34429;52.332;5.614;2022-11-14T08:16:44;49.35;;;19.40;;
48635;SDS011;34429;52.332;5.614;2022-11-14T08:19:12;49.38;;;20.35;;
48635;SDS011;34429;52.332;5.614;2022-11-14T08:21:44;54.45;;;19.70;;
48635;SDS011;34429;52.332;5.614;2022-11-14T08:24:12;47.83;;;17.90;;
48635;SDS011;34429;52.332;5.614;2022-11-14T08:26:40;48.80;;;20.00;;
48635;SDS011;34429;52.332;5.614;2022-11-14T08:29:09;42.55;;;17.40;;
48635;SDS011;34429;52.332;5.614;2022-11-14T08:31:37;45.13;;;18.23;;
48635;SDS011;34429;52.332;5.614;2022-11-14T08:34:05;43.10;;;18.23;;
48635;SDS011;34429;52.332;5.614;2022-11-14T08:36:33;49.25;;;18.77;;
48635;SDS011;34429;52.332;5.614;2022-11-14T08:39:05;46.17;;;18.67;;
48635;SDS011;34429;52.332;5.614;2022-11-14T08:41:33;44.42;;;18.75;;
48635;SDS011;34429;52.332;5.614;2022-11-14T08:44:01;50.58;;;19.25;;
48635;SDS011;34429;52.332;5.614;2022-11-14T08:46:29;46.00;;;17.30;;
48635;SDS011;34429;52.332;5.614;2022-11-14T08:48:58;39.85;;;18.85;;
48635;SDS011;34429;52.332;5.614;2022-11-14T08:51:26;47.53;;;18.10;;
48635;SDS011;34429;52.332;5.614;2022-11-14T08:53:55;45.85;;;19.33;;
48635;SDS011;34429;52.332;5.614;2022-11-14T08:56:26;44.70;;;18.92;;
48635;SDS011;34429;52.332;5.614;2022-11-14T08:58:54;47.03;;;19.77;;
48635;SDS011;34429;52.332;5.614;2022-11-14T09:01:26;43.22;;;18.38;;
48635;SDS011;34429;52.332;5.614;2022-11-14T09:03:56;46.92;;;18.55;;
48635;SDS011;34429;52.332;5.614;2022-11-14T09:06:24;45.95;;;17.40;;
48635;SDS011;34429;52.332;5.614;2022-11-14T09:08:53;64.40;;;28.10;;
48635;SDS011;34429;52.332;5.614;2022-11-14T09:11:21;43.72;;;18.98;;
48635;SDS011;34429;52.332;5.614;2022-11-14T09:13:53;42.53;;;17.52;;
48635;SDS011;34429;52.332;5.614;2022-11-14T09:16:22;38.38;;;17.20;;
48635;SDS011;34429;52.332;5.614;2022-11-14T09:18:50;45.25;;;18.13;;
48635;SDS011;34429;52.332;5.614;2022-11-14T09:21:18;36.22;;;17.90;;
48635;SDS011;34429;52.332;5.614;2022-11-14T09:23:46;38.95;;;16.55;;
48635;SDS011;34429;52.332;5.614;2022-11-14T09:26:16;44.00;;;16.58;;
48635;SDS011;34429;52.332;5.614;2022-11-14T09:28:47;39.75;;;17.50;;
48635;SDS011;34429;52.332;5.614;2022-11-14T09:31:15;35.40;;;16.65;;
48635;SDS011;34429;52.332;5.614;2022-11-14T09:33:44;36.92;;;15.95;;
48635;SDS011;34429;52.332;5.614;2022-11-14T09:36:12;37.15;;;16.38;;
48635;SDS011;34429;52.332;5.614;2022-11-14T09:38:42;36.15;;;15.57;;
48635;SDS011;34429;52.332;5.614;2022-11-14T09:44:15;36.95;;;15.85;;
48635;SDS011;34429;52.332;5.614;2022-11-14T09:46:56;34.88;;;16.20;;
48635;SDS011;34429;52.332;5.614;2022-11-14T09:49:29;35.08;;;16.95;;
48635;SDS011;34429;52.332;5.614;2022-11-14T09:52:04;38.95;;;18.35;;
48635;SDS011;34429;52.332;5.614;2022-11-14T09:54:41;33.20;;;14.70;;
48635;SDS011;34429;52.332;5.614;2022-11-14T09:57:14;36.40;;;16.30;;
48635;SDS011;34429;52.332;5.614;2022-11-14T09:59:47;32.58;;;15.70;;
48635;SDS011;34429;52.332;5.614;2022-11-14T10:02:24;32.72;;;15.50;;
48635;SDS011;34429;52.332;5.614;2022-11-14T10:05:02;39.63;;;16.70;;
48635;SDS011;34429;52.332;5.614;2022-11-14T10:07:42;33.50;;;16.00;;
48635;SDS011;34429;52.332;5.614;2022-11-14T10:10:23;31.63;;;14.90;;
48635;SDS011;34429;52.332;5.614;2022-11-14T10:13:00;30.75;;;14.40;;
48635;SDS011;34429;52.332;5.614;2022-11-14T10:15:46;33.17;;;15.20;;
48635;SDS011;34429;52.332;5.614;2022-11-14T10:18:27;33.88;;;16.73;;
48635;SDS011;34429;52.332;5.614;2022-11-14T10:21:08;32.20;;;15.00;;
48635;SDS011;34429;52.332;5.614;2022-11-14T10:23:51;31.55;;;15.10;;
48635;SDS011;34429;52.332;5.614;2022-11-14T10:26:28;31.52;;;13.93;;
48635;SDS011;34429;52.332;5.614;2022-11-14T10:29:01;34.50;;;15.73;;
48635;SDS011;34429;52.332;5.614;2022-11-14T10:31:59;34.03;;;14.95;;
48635;SDS011;34429;52.332;5.614;2022-11-14T10:34:36;27.58;;;13.82;;
48635;SDS011;34429;52.332;5.614;2022-11-14T10:37:13;29.73;;;14.15;;
48635;SDS011;34429;52.332;5.614;2022-11-14T10:39:47;28.55;;;14.68;;
48635;SDS011;34429;52.332;5.614;2022-11-14T10:42:19;25.95;;;12.55;;
48635;SDS011;34429;52.332;5.614;2022-11-14T10:44:53;26.20;;;13.25;;
48635;SDS011;34429;52.332;5.614;2022-11-14T10:47:32;24.00;;;12.70;;
48635;SDS011;34429;52.332;5.614;2022-11-14T10:50:11;23.13;;;12.60;;
48635;SDS011;34429;52.332;5.614;2022-11-14T10:52:48;28.38;;;14.38;;
48635;SDS011;34429;52.332;5.614;2022-11-14T10:55:24;24.23;;;12.63;;
48635;SDS011;34429;52.332;5.614;2022-11-14T10:57:52;27.88;;;13.30;;
48635;SDS011;34429;52.332;5.614;2022-11-14T11:02:54;27.30;;;12.93;;
48635;SDS011;34429;52.332;5.614;2022-11-14T11:05:26;25.75;;;13.15;;
48635;SDS011;34429;52.332;5.614;2022-11-14T11:07:57;26.17;;;12.68;;
48635;SDS011;34429;52.332;5.614;2022-11-14T11:10:40;26.42;;;12.90;;
48635;SDS011;34429;52.332;5.614;2022-11-14T11:13:29;25.08;;;12.02;;
48635;SDS011;34429;52.332;5.614;2022-11-14T11:15:59;22.02;;;12.02;;
48635;SDS011;34429;52.332;5.614;2022-11-14T11:18:32;22.38;;;12.20;;
48635;SDS011;34429;52.332;5.614;2022-11-14T11:21:02;22.02;;;12.13;;
48635;SDS011;34429;52.332;5.614;2022-11-14T11:23:33;25.90;;;11.75;;
48635;SDS011;34429;52.332;5.614;2022-11-14T11:26:03;22.35;;;11.80;;
48635;SDS011;34429;52.332;5.614;2022-11-14T11:28:33;23.27;;;12.70;;
48635;SDS011;34429;52.332;5.614;2022-11-14T11:31:04;24.65;;;11.75;;
48635;SDS011;34429;52.332;5.614;2022-11-14T11:33:38;25.52;;;13.07;;
48635;SDS011;34429;52.332;5.614;2022-11-14T11:36:09;20.83;;;12.50;;
48635;SDS011;34429;52.332;5.614;2022-11-14T11:38:42;24.20;;;12.35;;
48635;SDS011;34429;52.332;5.614;2022-11-14T11:41:15;23.38;;;11.77;;
48635;SDS011;34429;52.332;5.614;2022-11-14T11:43:50;20.02;;;11.18;;
48635;SDS011;34429;52.332;5.614;2022-11-14T11:46:24;20.92;;;11.68;;
48635;SDS011;34429;52.332;5.614;2022-11-14T11:49:12;24.08;;;12.85;;
48635;SDS011;34429;52.332;5.614;2022-11-14T11:51:45;24.00;;;13.10;;
48635;SDS011;34429;52.332;5.614;2022-11-14T11:54:15;20.52;;;11.93;;
48635;SDS011;34429;52.332;5.614;2022-11-14T11:56:46;25.27;;;12.45;;
48635;SDS011;34429;52.332;5.614;2022-11-14T11:59:25;24.17;;;12.75;;
48635;SDS011;34429;52.332;5.614;2022-11-14T12:01:59;23.23;;;12.05;;
48635;SDS011;34429;52.332;5.614;2022-11-14T12:04:33;25.05;;;12.68;;
48635;SDS011;34429;52.332;5.614;2022-11-14T12:07:02;25.58;;;13.45;;
48635;SDS011;34429;52.332;5.614;2022-11-14T12:09:38;24.08;;;13.07;;
48635;SDS011;34429;52.332;5.614;2022-11-14T12:12:11;23.80;;;13.02;;
48635;SDS011;34429;52.332;5.614;2022-11-14T12:14:49;25.77;;;12.60;;
48635;SDS011;34429;52.332;5.614;2022-11-14T12:17:34;24.50;;;13.15;;
48635;SDS011;34429;52.332;5.614;2022-11-14T12:20:32;24.05;;;12.95;;
48635;SDS011;34429;52.332;5.614;2022-11-14T12:26:21;24.05;;;12.95;;
48635;SDS011;34429;52.332;5.614;2022-11-14T12:29:05;26.90;;;12.48;;
48635;SDS011;34429;52.332;5.614;2022-11-14T12:31:46;25.05;;;13.02;;
48635;SDS011;34429;52.332;5.614;2022-11-14T12:34:17;24.48;;;12.98;;
48635;SDS011;34429;52.332;5.614;2022-11-14T12:36:52;24.42;;;13.00;;
48635;SDS011;34429;52.332;5.614;2022-11-14T12:39:21;25.23;;;13.32;;
48635;SDS011;34429;52.332;5.614;2022-11-14T12:41:59;25.45;;;12.55;;
48635;SDS011;34429;52.332;5.614;2022-11-14T12:44:31;27.77;;;13.35;;
48635;SDS011;34429;52.332;5.614;2022-11-14T12:47:10;23.58;;;13.10;;
48635;SDS011;34429;52.332;5.614;2022-11-14T12:58:14;32.13;;;18.40;;
48635;SDS011;34429;52.332;5.614;2022-11-14T13:00:58;36.97;;;21.08;;
48635;SDS011;34429;52.332;5.614;2022-11-14T13:03:37;37.72;;;22.00;;
48635;SDS011;34429;52.332;5.614;2022-11-14T13:06:16;36.15;;;20.08;;
48635;SDS011;34429;52.332;5.614;2022-11-14T13:09:01;32.22;;;19.63;;
48635;SDS011;34429;52.332;5.614;2022-11-14T13:11:42;36.35;;;21.60;;
48635;SDS011;34429;52.332;5.614;2022-11-14T13:14:24;34.35;;;20.17;;
48635;SDS011;34429;52.332;5.614;2022-11-14T13:17:09;38.55;;;21.25;;
48635;SDS011;34429;52.332;5.614;2022-11-14T13:19:59;37.58;;;21.17;;
48635;SDS011;34429;52.332;5.614;2022-11-14T13:22:41;35.35;;;20.23;;
48635;SDS011;34429;52.332;5.614;2022-11-14T13:25:16;33.72;;;19.80;;
48635;SDS011;34429;52.332;5.614;2022-11-14T13:27:46;34.22;;;19.63;;
48635;SDS011;34429;52.332;5.614;2022-11-14T13:30:19;34.35;;;20.27;;
48635;SDS011;34429;52.332;5.614;2022-11-14T13:36:09;34.97;;;20.42;;
48635;SDS011;34429;52.332;5.614;2022-11-14T13:39:02;35.60;;;20.42;;
48635;SDS011;34429;52.332;5.614;2022-11-14T13:41:55;39.45;;;20.95;;
48635;SDS011;34429;52.332;5.614;2022-11-14T13:47:47;35.28;;;19.52;;
48635;SDS011;34429;52.332;5.614;2022-11-14T13:50:34;39.72;;;20.05;;
48635;SDS011;34429;52.332;5.614;2022-11-14T13:53:09;36.97;;;19.38;;
48635;SDS011;34429;52.332;5.614;2022-11-14T13:55:46;34.78;;;20.45;;
48635;SDS011;34429;52.332;5.614;2022-11-14T13:58:28;31.00;;;18.27;;
48635;SDS011;34429;52.332;5.614;2022-11-14T14:01:07;33.30;;;18.38;;
48635;SDS011;34429;52.332;5.614;2022-11-14T14:03:52;38.50;;;20.42;;
48635;SDS011;34429;52.332;5.614;2022-11-14T14:06:34;34.45;;;18.98;;
48635;SDS011;34429;52.332;5.614;2022-11-14T14:09:14;37.20;;;20.33;;
48635;SDS011;34429;52.332;5.614;2022-11-14T14:11:55;37.95;;;20.60;;
48635;SDS011;34429;52.332;5.614;2022-11-14T14:14:40;38.75;;;21.70;;
48635;SDS011;34429;52.332;5.614;2022-11-14T14:17:18;34.80;;;19.48;;
48635;SDS011;34429;52.332;5.614;2022-11-14T14:19:57;40.42;;;19.92;;
48635;SDS011;34429;52.332;5.614;2022-11-14T14:22:34;38.33;;;20.73;;
48635;SDS011;34429;52.332;5.614;2022-11-14T14:25:13;40.03;;;21.95;;
48635;SDS011;34429;52.332;5.614;2022-11-14T14:27:55;38.25;;;21.25;;
48635;SDS011;34429;52.332;5.614;2022-11-14T14:30:35;39.17;;;20.52;;
48635;SDS011;34429;52.332;5.614;2022-11-14T14:33:10;37.30;;;20.50;;
48635;SDS011;34429;52.332;5.614;2022-11-14T14:35:48;36.00;;;21.58;;
48635;SDS011;34429;52.332;5.614;2022-11-14T14:38:21;37.47;;;20.60;;
48635;SDS011;34429;52.332;5.614;2022-11-14T14:40:52;37.20;;;22.00;;
48635;SDS011;34429;52.332;5.614;2022-11-14T14:43:23;37.60;;;21.15;;
48635;SDS011;34429;52.332;5.614;2022-11-14T14:45:58;35.33;;;20.10;;
48635;SDS011;34429;52.332;5.614;2022-11-14T14:48:30;32.53;;;18.80;;
48635;SDS011;34429;52.332;5.614;2022-11-14T14:51:02;29.40;;;17.10;;
48635;SDS011;34429;52.332;5.614;2022-11-14T14:53:32;30.73;;;18.15;;
48635;SDS011;34429;52.332;5.614;2022-11-14T14:56:02;29.73;;;18.00;;
48635;SDS011;34429;52.332;5.614;2022-11-14T14:58:33;26.85;;;16.33;;
48635;SDS011;34429;52.332;5.614;2022-11-14T15:01:08;24.40;;;15.43;;
48635;SDS011;34429;52.332;5.614;2022-11-14T15:03:39;27.45;;;15.10;;
48635;SDS011;34429;52.332;5.614;2022-11-14T15:06:26;26.30;;;15.35;;
48635;SDS011;34429;52.332;5.614;2022-11-14T15:08:59;25.80;;;14.23;;
48635;SDS011;34429;52.332;5.614;2022-11-14T15:11:34;22.90;;;14.13;;